Time,TemperatureF,DewpointF,PressureIn,WindDirection,WindDirectionDegrees,WindSpeedMPH,WindSpeedGustMPH,Humidity,HourlyPrecipIn,Conditions,Clouds,dailyrainin,SoftwareType,DateUTC
2013-09-12 00:01:00,73.3,65.7,30.08,ENE,57,1.0,1.0,77,0.00,,,0.00,Wunderground v.1.15,2013-09-12 04:01:00,
2013-09-12 00:02:00,73.3,65.3,30.08,ENE,57,1.0,1.0,76,0.00,,,0.00,Wunderground v.1.15,2013-09-12 04:02:00,
2013-09-12 00:03:00,73.3,65.3,30.08,ENE,57,0.0,1.0,76,0.00,,,0.00,Wunderground v.1.15,2013-09-12 04:03:00,
2013-09-12 00:05:00,73.2,65.6,30.08,ENE,57,0.0,1.0,77,0.00,,,0.00,Wunderground v.1.15,2013-09-12 04:05:00,
2013-09-12 00:11:00,73.3,65.3,30.08,ENE,57,0.0,0.0,76,0.00,,,0.00,Wunderground v.1.15,2013-09-12 04:11:00,
2013-09-12 00:17:00,73.3,65.3,30.08,ENE,57,0.0,1.0,76,0.00,,,0.00,Wunderground v.1.15,2013-09-12 04:17:00,
2013-09-12 00:22:00,73.2,65.6,30.08,ENE,57,0.0,0.0,77,0.00,,,0.00,Wunderground v.1.15,2013-09-12 04:22:00,
2013-09-12 00:24:00,73.3,64.9,30.08,ENE,57,0.0,0.0,75,0.00,,,0.00,Wunderground v.1.15,2013-09-12 04:24:00,
2013-09-12 00:30:00,73.5,65.1,30.08,ENE,57,0.0,0.0,75,0.00,,,0.00,Wunderground v.1.15,2013-09-12 04:30:00,
2013-09-12 00:35:00,73.3,64.9,30.07,ENE,57,0.0,0.0,75,0.00,,,0.00,Wunderground v.1.15,2013-09-12 04:35:00,
2013-09-12 00:40:00,73.3,65.3,30.07,ENE,57,0.0,0.0,76,0.00,,,0.00,Wunderground v.1.15,2013-09-12 04:40:00,
2013-09-12 00:46:00,73.0,65.4,30.07,ENE,57,0.0,0.0,77,0.00,,,0.00,Wunderground v.1.15,2013-09-12 04:46:00,
2013-09-12 00:52:00,73.0,65.4,30.07,ENE,57,0.0,0.0,77,0.00,,,0.00,Wunderground v.1.15,2013-09-12 04:52:00,
2013-09-12 00:57:00,73.0,65.4,30.07,ENE,57,0.0,0.0,77,0.00,,,0.00,Wunderground v.1.15,2013-09-12 04:57:00,
2013-09-12 01:03:00,73.0,65.4,30.07,ENE,57,0.0,0.0,77,0.00,,,0.00,Wunderground v.1.15,2013-09-12 05:03:00,
2013-09-12 01:08:00,73.0,65.4,30.06,ENE,57,0.0,0.0,77,0.00,,,0.00,Wunderground v.1.15,2013-09-12 05:08:00,
2013-09-12 01:14:00,73.0,65.4,30.06,ENE,57,0.0,1.0,77,0.00,,,0.00,Wunderground v.1.15,2013-09-12 05:14:00,
2013-09-12 01:19:00,73.7,64.9,30.06,ENE,57,0.0,2.0,74,0.00,,,0.00,Wunderground v.1.15,2013-09-12 05:19:00,
2013-09-12 01:25:00,74.2,65.0,30.06,ENE,57,1.0,1.0,73,0.00,,,0.00,Wunderground v.1.15,2013-09-12 05:25:00,
2013-09-12 01:30:00,74.6,65.4,30.06,ENE,57,0.0,0.0,73,0.00,,,0.00,Wunderground v.1.15,2013-09-12 05:30:00,
2013-09-12 01:37:00,74.9,65.3,30.05,ENE,57,0.0,1.0,72,0.00,,,0.00,Wunderground v.1.15,2013-09-12 05:37:00,
2013-09-12 01:42:00,74.9,65.3,30.05,ENE,57,0.0,0.0,72,0.00,,,0.00,Wunderground v.1.15,2013-09-12 05:42:00,
2013-09-12 01:47:00,74.7,65.5,30.05,ENE,57,0.0,1.0,73,0.00,,,0.00,Wunderground v.1.15,2013-09-12 05:47:00,
2013-09-12 01:53:00,74.7,65.1,30.05,ENE,57,0.0,0.0,72,0.00,,,0.00,Wunderground v.1.15,2013-09-12 05:53:00,
2013-09-12 01:58:00,74.7,65.1,30.05,ENE,57,0.0,0.0,72,0.00,,,0.00,Wunderground v.1.15,2013-09-12 05:58:00,
2013-09-12 02:04:00,74.9,65.3,30.05,ENE,57,0.0,0.0,72,0.00,,,0.00,Wunderground v.1.15,2013-09-12 06:04:00,
2013-09-12 02:09:00,74.9,65.3,30.05,ENE,57,0.0,0.0,72,0.00,,,0.00,Wunderground v.1.15,2013-09-12 06:09:00,
2013-09-12 02:14:00,74.6,65.4,30.05,ENE,57,0.0,2.0,73,0.00,,,0.00,Wunderground v.1.15,2013-09-12 06:14:00,
2013-09-12 02:20:00,74.0,65.2,30.05,ENE,57,0.0,0.0,74,0.00,,,0.00,Wunderground v.1.15,2013-09-12 06:20:00,
2013-09-12 02:25:00,74.0,65.2,30.05,ENE,57,0.0,3.0,74,0.00,,,0.00,Wunderground v.1.15,2013-09-12 06:25:00,
2013-09-12 02:31:00,73.7,65.3,30.05,ENE,57,1.0,1.0,75,0.00,,,0.00,Wunderground v.1.15,2013-09-12 06:31:00,
2013-09-12 02:36:00,73.5,65.1,30.05,ENE,57,1.0,3.0,75,0.00,,,0.00,Wunderground v.1.15,2013-09-12 06:36:00,
2013-09-12 02:42:00,73.7,64.9,30.05,ENE,57,1.0,2.0,74,0.00,,,0.00,Wunderground v.1.15,2013-09-12 06:42:00,
2013-09-12 02:47:00,73.9,65.1,30.05,ENE,57,1.0,2.0,74,0.00,,,0.00,Wunderground v.1.15,2013-09-12 06:47:00,
2013-09-12 02:53:00,74.0,64.8,30.05,ENE,57,0.0,3.0,73,0.00,,,0.00,Wunderground v.1.15,2013-09-12 06:53:00,
2013-09-12 02:58:00,74.2,65.0,30.05,ENE,57,0.0,3.0,73,0.00,,,0.00,Wunderground v.1.15,2013-09-12 06:58:00,
2013-09-12 03:04:00,74.2,65.0,30.05,ENE,57,0.0,3.0,73,0.00,,,0.00,Wunderground v.1.15,2013-09-12 07:04:00,
2013-09-12 03:09:00,74.0,64.8,30.05,ENE,57,0.0,1.0,73,0.00,,,0.00,Wunderground v.1.15,2013-09-12 07:09:00,
2013-09-12 03:15:00,74.2,65.0,30.05,ENE,57,0.0,1.0,73,0.00,,,0.00,Wunderground v.1.15,2013-09-12 07:15:00,
2013-09-12 03:20:00,74.0,64.8,30.05,ENE,57,0.0,0.0,73,0.00,,,0.00,Wunderground v.1.15,2013-09-12 07:20:00,
2013-09-12 03:27:00,74.2,65.0,30.05,ENE,57,0.0,0.0,73,0.00,,,0.00,Wunderground v.1.15,2013-09-12 07:27:00,
2013-09-12 03:33:00,74.0,65.2,30.05,ENE,57,0.0,0.0,74,0.00,,,0.00,Wunderground v.1.15,2013-09-12 07:33:00,
2013-09-12 03:39:00,73.9,65.1,30.05,ENE,57,0.0,0.0,74,0.00,,,0.00,Wunderground v.1.15,2013-09-12 07:39:00,
2013-09-12 03:44:00,73.7,65.7,30.05,ENE,57,0.0,0.0,76,0.00,,,0.00,Wunderground v.1.15,2013-09-12 07:44:00,
2013-09-12 03:50:00,73.0,65.4,30.04,ENE,57,0.0,0.0,77,0.00,,,0.00,Wunderground v.1.15,2013-09-12 07:50:00,
2013-09-12 03:56:00,72.7,65.8,30.04,ENE,57,0.0,0.0,79,0.00,,,0.00,Wunderground v.1.15,2013-09-12 07:56:00,
2013-09-12 04:01:00,72.3,65.8,30.04,ENE,57,0.0,0.0,80,0.00,,,0.00,Wunderground v.1.15,2013-09-12 08:01:00,
2013-09-12 04:06:00,71.8,65.7,30.04,ENE,57,0.0,0.0,81,0.00,,,0.00,Wunderground v.1.15,2013-09-12 08:06:00,
2013-09-12 04:12:00,71.3,65.2,30.04,ENE,57,0.0,0.0,81,0.00,,,0.00,Wunderground v.1.15,2013-09-12 08:12:00,
2013-09-12 04:17:00,71.1,65.0,30.04,ENE,57,0.0,0.0,81,0.00,,,0.00,Wunderground v.1.15,2013-09-12 08:17:00,
2013-09-12 04:23:00,71.5,65.0,30.04,ENE,57,0.0,1.0,80,0.00,,,0.00,Wunderground v.1.15,2013-09-12 08:23:00,
2013-09-12 04:28:00,72.3,65.1,30.04,ENE,57,0.0,1.0,78,0.00,,,0.00,Wunderground v.1.15,2013-09-12 08:28:00,
2013-09-12 04:33:00,72.8,65.2,30.04,ENE,57,0.0,0.0,77,0.00,,,0.00,Wunderground v.1.15,2013-09-12 08:33:00,
2013-09-12 04:39:00,72.8,65.2,30.03,ENE,57,0.0,0.0,77,0.00,,,0.00,Wunderground v.1.15,2013-09-12 08:39:00,
2013-09-12 04:45:00,73.0,65.4,30.03,ENE,57,0.0,0.0,77,0.00,,,0.00,Wunderground v.1.15,2013-09-12 08:45:00,
2013-09-12 04:50:00,73.0,65.4,30.03,ENE,57,0.0,0.0,77,0.00,,,0.00,Wunderground v.1.15,2013-09-12 08:50:00,
2013-09-12 04:55:00,73.3,65.7,30.03,ENE,57,0.0,0.0,77,0.00,,,0.00,Wunderground v.1.15,2013-09-12 08:55:00,
2013-09-12 05:01:00,73.5,65.1,30.03,ENE,57,0.0,0.0,75,0.00,,,0.00,Wunderground v.1.15,2013-09-12 09:01:00,
2013-09-12 05:06:00,73.9,65.5,30.03,ENE,57,0.0,1.0,75,0.00,,,0.00,Wunderground v.1.15,2013-09-12 09:06:00,
2013-09-12 05:12:00,73.9,65.5,30.03,ENE,57,0.0,0.0,75,0.00,,,0.00,Wunderground v.1.15,2013-09-12 09:12:00,
2013-09-12 05:17:00,73.9,65.5,30.03,ENE,57,0.0,0.0,75,0.00,,,0.00,Wunderground v.1.15,2013-09-12 09:17:00,
2013-09-12 05:22:00,73.7,65.7,30.04,ENE,57,0.0,0.0,76,0.00,,,0.00,Wunderground v.1.15,2013-09-12 09:22:00,
2013-09-12 05:28:00,73.5,65.5,30.04,ENE,57,0.0,0.0,76,0.00,,,0.00,Wunderground v.1.15,2013-09-12 09:28:00,
2013-09-12 05:33:00,73.2,65.6,30.04,ENE,57,0.0,0.0,77,0.00,,,0.00,Wunderground v.1.15,2013-09-12 09:33:00,
2013-09-12 05:39:00,73.0,66.1,30.04,ENE,57,0.0,0.0,79,0.00,,,0.00,Wunderground v.1.15,2013-09-12 09:39:00,
2013-09-12 05:44:00,72.7,66.5,30.04,ENE,57,0.0,0.0,81,0.00,,,0.00,Wunderground v.1.15,2013-09-12 09:44:00,
2013-09-12 05:49:00,72.1,65.9,30.04,ENE,57,0.0,0.0,81,0.00,,,0.00,Wunderground v.1.15,2013-09-12 09:49:00,
2013-09-12 05:55:00,71.8,66.0,30.04,ENE,57,0.0,0.0,82,0.00,,,0.00,Wunderground v.1.15,2013-09-12 09:55:00,
2013-09-12 06:00:00,71.8,65.7,30.04,ENE,57,0.0,0.0,81,0.00,,,0.00,Wunderground v.1.15,2013-09-12 10:00:00,
2013-09-12 06:06:00,71.8,65.3,30.04,ENE,57,0.0,0.0,80,0.00,,,0.00,Wunderground v.1.15,2013-09-12 10:06:00,
2013-09-12 06:12:00,72.3,65.4,30.04,ENE,57,0.0,0.0,79,0.00,,,0.00,Wunderground v.1.15,2013-09-12 10:12:00,
2013-09-12 06:18:00,72.5,65.2,30.04,ENE,57,0.0,0.0,78,0.00,,,0.00,Wunderground v.1.15,2013-09-12 10:18:00,
2013-09-12 06:23:00,72.7,65.4,30.03,ENE,57,0.0,0.0,78,0.00,,,0.00,Wunderground v.1.15,2013-09-12 10:23:00,
2013-09-12 06:29:00,72.7,65.4,30.03,ENE,57,0.0,0.0,78,0.00,,,0.00,Wunderground v.1.15,2013-09-12 10:29:00,
2013-09-12 06:34:00,72.8,65.5,30.03,ENE,57,0.0,0.0,78,0.00,,,0.00,Wunderground v.1.15,2013-09-12 10:34:00,
2013-09-12 06:39:00,72.8,65.5,30.03,ENE,57,0.0,0.0,78,0.00,,,0.00,Wunderground v.1.15,2013-09-12 10:39:00,
2013-09-12 06:45:00,72.8,65.5,30.03,ENE,57,0.0,0.0,78,0.00,,,0.00,Wunderground v.1.15,2013-09-12 10:45:00,
2013-09-12 06:50:00,72.8,65.5,30.04,ENE,57,0.0,0.0,78,0.00,,,0.00,Wunderground v.1.15,2013-09-12 10:50:00,
2013-09-12 06:56:00,72.8,65.5,30.04,ENE,57,0.0,0.0,78,0.00,,,0.00,Wunderground v.1.15,2013-09-12 10:56:00,
2013-09-12 07:01:00,72.8,65.5,30.04,ENE,57,0.0,0.0,78,0.00,,,0.00,Wunderground v.1.15,2013-09-12 11:01:00,
2013-09-12 07:07:00,73.0,65.4,30.04,ENE,57,0.0,0.0,77,0.00,,,0.00,Wunderground v.1.15,2013-09-12 11:07:00,
2013-09-12 07:12:00,73.0,65.4,30.04,ENE,57,0.0,0.0,77,0.00,,,0.00,Wunderground v.1.15,2013-09-12 11:12:00,
2013-09-12 07:18:00,73.0,65.4,30.04,ENE,57,0.0,0.0,77,0.00,,,0.00,Wunderground v.1.15,2013-09-12 11:18:00,
2013-09-12 07:23:00,73.0,65.7,30.04,ENE,57,0.0,0.0,78,0.00,,,0.00,Wunderground v.1.15,2013-09-12 11:23:00,
2013-09-12 07:29:00,73.0,65.4,30.04,ENE,57,0.0,0.0,77,0.00,,,0.00,Wunderground v.1.15,2013-09-12 11:29:00,
2013-09-12 07:34:00,73.0,65.0,30.04,ENE,57,0.0,0.0,76,0.00,,,0.00,Wunderground v.1.15,2013-09-12 11:34:00,
2013-09-12 07:40:00,72.8,65.2,30.04,ENE,57,0.0,0.0,77,0.00,,,0.00,Wunderground v.1.15,2013-09-12 11:40:00,
2013-09-12 07:45:00,72.8,65.2,30.04,ENE,57,0.0,0.0,77,0.00,,,0.00,Wunderground v.1.15,2013-09-12 11:45:00,
2013-09-12 07:50:00,72.7,65.4,30.05,ENE,57,0.0,0.0,78,0.00,,,0.00,Wunderground v.1.15,2013-09-12 11:50:00,
2013-09-12 07:56:00,72.5,65.2,30.05,ENE,57,0.0,0.0,78,0.00,,,0.00,Wunderground v.1.15,2013-09-12 11:56:00,
2013-09-12 08:01:00,72.5,65.2,30.05,ENE,57,0.0,0.0,78,0.00,,,0.00,Wunderground v.1.15,2013-09-12 12:01:00,
2013-09-12 08:07:00,72.5,65.2,30.05,ENE,57,0.0,0.0,78,0.00,,,0.00,Wunderground v.1.15,2013-09-12 12:07:00,
2013-09-12 08:12:00,72.5,65.2,30.05,ENE,57,0.0,0.0,78,0.00,,,0.00,Wunderground v.1.15,2013-09-12 12:12:00,
2013-09-12 08:18:00,72.5,65.2,30.05,ENE,57,0.0,0.0,78,0.00,,,0.00,Wunderground v.1.15,2013-09-12 12:18:00,
2013-09-12 08:23:00,72.5,65.2,30.05,ENE,57,0.0,0.0,78,0.00,,,0.00,Wunderground v.1.15,2013-09-12 12:23:00,
2013-09-12 08:29:00,72.5,65.6,30.05,ENE,57,0.0,0.0,79,0.00,,,0.00,Wunderground v.1.15,2013-09-12 12:29:00,
2013-09-12 08:34:00,72.5,65.6,30.05,ENE,57,0.0,0.0,79,0.00,,,0.00,Wunderground v.1.15,2013-09-12 12:34:00,
2013-09-12 08:40:00,72.5,65.6,30.06,ENE,57,0.0,0.0,79,0.00,,,0.00,Wunderground v.1.15,2013-09-12 12:40:00,
2013-09-12 08:45:00,72.7,65.8,30.06,ENE,57,0.0,0.0,79,0.00,,,0.00,Wunderground v.1.15,2013-09-12 12:45:00,
2013-09-12 08:51:00,72.7,65.4,30.06,ENE,57,0.0,0.0,78,0.00,,,0.00,Wunderground v.1.15,2013-09-12 12:51:00,
2013-09-12 08:56:00,72.8,65.5,30.06,ENE,57,0.0,0.0,78,0.00,,,0.00,Wunderground v.1.15,2013-09-12 12:56:00,
2013-09-12 09:02:00,72.8,65.9,30.06,ENE,57,0.0,0.0,79,0.00,,,0.00,Wunderground v.1.15,2013-09-12 13:02:00,
2013-09-12 09:07:00,72.8,65.5,30.06,ENE,57,0.0,0.0,78,0.00,,,0.00,Wunderground v.1.15,2013-09-12 13:07:00,
2013-09-12 09:13:00,73.0,65.7,30.06,ENE,57,0.0,0.0,78,0.00,,,0.00,Wunderground v.1.15,2013-09-12 13:13:00,
2013-09-12 09:18:00,73.0,65.7,30.06,ENE,57,0.0,0.0,78,0.00,,,0.00,Wunderground v.1.15,2013-09-12 13:18:00,
2013-09-12 09:23:00,73.0,65.7,30.06,ENE,57,0.0,0.0,78,0.00,,,0.00,Wunderground v.1.15,2013-09-12 13:23:00,
2013-09-12 09:29:00,73.0,65.7,30.06,ENE,57,0.0,0.0,78,0.00,,,0.00,Wunderground v.1.15,2013-09-12 13:29:00,
2013-09-12 09:34:00,73.2,65.9,30.06,ENE,57,0.0,1.0,78,0.00,,,0.00,Wunderground v.1.15,2013-09-12 13:34:00,
2013-09-12 09:40:00,73.2,65.9,30.06,ENE,57,0.0,0.0,78,0.00,,,0.00,Wunderground v.1.15,2013-09-12 13:40:00,
2013-09-12 09:45:00,73.5,65.8,30.06,ENE,57,0.0,0.0,77,0.00,,,0.00,Wunderground v.1.15,2013-09-12 13:45:00,
2013-09-12 09:50:00,73.7,66.0,30.05,ENE,57,0.0,0.0,77,0.00,,,0.00,Wunderground v.1.15,2013-09-12 13:50:00,
2013-09-12 09:56:00,74.0,66.0,30.05,ENE,57,0.0,0.0,76,0.00,,,0.00,Wunderground v.1.15,2013-09-12 13:56:00,
2013-09-12 10:02:00,74.6,66.5,30.05,ENE,57,0.0,2.0,76,0.00,,,0.00,Wunderground v.1.15,2013-09-12 14:02:00,
2013-09-12 10:07:00,74.9,66.4,30.05,ENE,57,0.0,2.0,75,0.00,,,0.00,Wunderground v.1.15,2013-09-12 14:07:00,
2013-09-12 10:13:00,75.3,66.4,30.05,ENE,57,0.0,3.0,74,0.00,,,0.00,Wunderground v.1.15,2013-09-12 14:13:00,
2013-09-12 10:18:00,75.6,66.7,30.05,ENE,57,0.0,5.0,74,0.00,,,0.00,Wunderground v.1.15,2013-09-12 14:18:00,
2013-09-12 10:24:00,76.0,67.1,30.05,ENE,57,0.0,0.0,74,0.00,,,0.00,Wunderground v.1.15,2013-09-12 14:24:00,
2013-09-12 10:29:00,76.3,67.4,30.05,ENE,57,0.0,3.0,74,0.00,,,0.00,Wunderground v.1.15,2013-09-12 14:29:00,
2013-09-12 10:34:00,76.7,67.4,30.05,ENE,57,0.0,2.0,73,0.00,,,0.00,Wunderground v.1.15,2013-09-12 14:34:00,
2013-09-12 10:40:00,77.0,66.9,30.05,West,261,1.0,1.0,71,0.00,,,0.00,Wunderground v.1.15,2013-09-12 14:40:00,
2013-09-12 10:45:00,77.6,67.4,30.05,WSW,255,1.0,3.0,71,0.00,,,0.00,Wunderground v.1.15,2013-09-12 14:45:00,
2013-09-12 10:51:00,77.9,66.9,30.04,WSW,255,1.0,2.0,69,0.00,,,0.00,Wunderground v.1.15,2013-09-12 14:51:00,
2013-09-12 10:56:00,77.9,67.7,30.04,WSW,258,1.0,2.0,71,0.00,,,0.00,Wunderground v.1.15,2013-09-12 14:56:00,
2013-09-12 11:02:00,77.9,66.9,30.04,WSW,257,0.0,1.0,69,0.00,,,0.00,Wunderground v.1.15,2013-09-12 15:02:00,
2013-09-12 11:08:00,78.1,67.1,30.04,West,267,1.0,2.0,69,0.00,,,0.00,Wunderground v.1.15,2013-09-12 15:08:00,
2013-09-12 11:13:00,78.1,67.5,30.04,West,267,1.0,3.0,70,0.00,,,0.00,Wunderground v.1.15,2013-09-12 15:13:00,
2013-09-12 11:19:00,78.8,68.2,30.04,West,267,0.0,3.0,70,0.00,,,0.00,Wunderground v.1.15,2013-09-12 15:19:00,
2013-09-12 11:25:00,79.8,67.9,30.04,West,262,1.0,3.0,67,0.00,,,0.00,Wunderground v.1.15,2013-09-12 15:25:00,
2013-09-12 11:30:00,80.1,67.7,30.04,WSW,258,1.0,1.0,66,0.00,,,0.00,Wunderground v.1.15,2013-09-12 15:30:00,
2013-09-12 11:36:00,80.3,68.3,30.03,WSW,253,1.0,3.0,67,0.00,,,0.00,Wunderground v.1.15,2013-09-12 15:36:00,
2013-09-12 11:41:00,80.1,68.2,30.03,WSW,254,2.0,5.0,67,0.00,,,0.00,Wunderground v.1.15,2013-09-12 15:41:00,
2013-09-12 11:47:00,79.9,68.0,30.03,WSW,243,2.0,5.0,67,0.00,,,0.00,Wunderground v.1.15,2013-09-12 15:47:00,
2013-09-12 11:52:00,80.1,68.2,30.03,WSW,238,1.0,2.0,67,0.00,,,0.00,Wunderground v.1.15,2013-09-12 15:52:00,
2013-09-12 11:58:00,80.7,67.8,30.03,WSW,251,1.0,2.0,65,0.00,,,0.00,Wunderground v.1.15,2013-09-12 15:58:00,
2013-09-12 12:04:00,81.4,68.1,30.03,WSW,251,1.0,1.0,64,0.00,,,0.00,Wunderground v.1.15,2013-09-12 16:04:00,
2013-09-12 12:09:00,81.8,67.0,30.03,WSW,244,1.0,2.0,61,0.00,,,0.00,Wunderground v.1.15,2013-09-12 16:09:00,
2013-09-12 12:14:00,81.4,67.6,30.03,WSW,248,1.0,5.0,63,0.00,,,0.00,Wunderground v.1.15,2013-09-12 16:14:00,
2013-09-12 12:20:00,81.1,68.2,30.02,WSW,249,1.0,2.0,65,0.00,,,0.00,Wunderground v.1.15,2013-09-12 16:20:00,
2013-09-12 12:25:00,81.4,68.5,30.02,WSW,249,0.0,2.0,65,0.00,,,0.00,Wunderground v.1.15,2013-09-12 16:25:00,
2013-09-12 12:31:00,81.4,68.1,30.02,WSW,239,2.0,8.0,64,0.00,,,0.00,Wunderground v.1.15,2013-09-12 16:31:00,
2013-09-12 12:36:00,81.1,67.3,30.02,WSW,249,3.0,8.0,63,0.00,,,0.00,Wunderground v.1.15,2013-09-12 16:36:00,
2013-09-12 12:42:00,80.7,67.4,30.02,West,261,2.0,4.0,64,0.00,,,0.00,Wunderground v.1.15,2013-09-12 16:42:00,
2013-09-12 12:47:00,81.1,68.2,30.02,West,262,2.0,5.0,65,0.00,,,0.00,Wunderground v.1.15,2013-09-12 16:47:00,
2013-09-12 12:53:00,82.0,67.7,30.01,West,261,1.0,6.0,62,0.00,,,0.00,Wunderground v.1.15,2013-09-12 16:53:00,
2013-09-12 12:58:00,82.4,68.1,30.01,SW,236,1.0,6.0,62,0.00,,,0.00,Wunderground v.1.15,2013-09-12 16:58:00,
2013-09-12 13:04:00,82.0,68.2,30.01,SW,230,2.0,4.0,63,0.00,,,0.00,Wunderground v.1.15,2013-09-12 17:04:00,
2013-09-12 13:09:00,82.2,68.3,30.00,SW,232,1.0,1.0,63,0.00,,,0.00,Wunderground v.1.15,2013-09-12 17:09:00,
2013-09-12 13:15:00,82.6,68.7,30.00,SW,232,0.0,1.0,63,0.00,,,0.00,Wunderground v.1.15,2013-09-12 17:15:00,
2013-09-12 13:20:00,81.8,68.9,30.00,SW,232,0.0,2.0,65,0.00,,,0.00,Wunderground v.1.15,2013-09-12 17:20:00,
2013-09-12 13:26:00,81.1,68.7,30.00,SW,232,1.0,2.0,66,0.00,,,0.00,Wunderground v.1.15,2013-09-12 17:26:00,
2013-09-12 13:31:00,80.5,68.5,30.00,SW,232,0.0,0.0,67,0.00,,,0.00,Wunderground v.1.15,2013-09-12 17:31:00,
2013-09-12 13:37:00,80.3,68.3,30.00,SW,232,1.0,2.0,67,0.00,,,0.00,Wunderground v.1.15,2013-09-12 17:37:00,
2013-09-12 13:42:00,80.3,68.8,30.00,SW,235,1.0,1.0,68,0.00,,,0.00,Wunderground v.1.15,2013-09-12 17:42:00,
2013-09-12 13:48:00,80.5,69.0,30.00,WSW,245,1.0,5.0,68,0.00,,,0.00,Wunderground v.1.15,2013-09-12 17:48:00,
2013-09-12 13:53:00,80.3,68.8,29.99,WSW,247,2.0,5.0,68,0.00,,,0.00,Wunderground v.1.15,2013-09-12 17:53:00,
2013-09-12 13:59:00,80.9,67.6,29.99,WSW,245,2.0,5.0,64,0.00,,,0.00,Wunderground v.1.15,2013-09-12 17:59:00,
2013-09-12 14:05:00,81.2,67.9,29.98,West,260,2.0,9.0,64,0.00,,,0.00,Wunderground v.1.15,2013-09-12 18:05:00,
2013-09-12 14:11:00,81.6,67.8,29.98,WSW,253,2.0,6.0,63,0.00,,,0.00,Wunderground v.1.15,2013-09-12 18:11:00,
2013-09-12 14:16:00,81.6,67.3,29.98,WSW,243,2.0,6.0,62,0.00,,,0.00,Wunderground v.1.15,2013-09-12 18:16:00,
2013-09-12 14:22:00,82.0,68.2,29.98,WSW,244,1.0,2.0,63,0.00,,,0.00,Wunderground v.1.15,2013-09-12 18:22:00,
2013-09-12 14:27:00,82.4,68.5,29.98,WSW,249,1.0,4.0,63,0.00,,,0.00,Wunderground v.1.15,2013-09-12 18:27:00,
2013-09-12 14:32:00,82.4,67.1,29.98,West,271,2.0,3.0,60,0.00,,,0.00,Wunderground v.1.15,2013-09-12 18:32:00,
2013-09-12 14:38:00,82.2,66.9,29.97,West,260,2.0,3.0,60,0.00,,,0.00,Wunderground v.1.15,2013-09-12 18:38:00,
2013-09-12 14:43:00,82.2,67.9,29.97,WSW,255,2.0,2.0,62,0.00,,,0.00,Wunderground v.1.15,2013-09-12 18:43:00,
2013-09-12 14:49:00,82.8,68.0,29.97,WSW,255,0.0,2.0,61,0.00,,,0.00,Wunderground v.1.15,2013-09-12 18:49:00,
2013-09-12 14:54:00,83.4,67.6,29.96,WSW,258,0.0,3.0,59,0.00,,,0.00,Wunderground v.1.15,2013-09-12 18:54:00,
2013-09-12 15:00:00,83.4,68.1,29.96,West,259,1.0,1.0,60,0.00,,,0.00,Wunderground v.1.15,2013-09-12 19:00:00,
2013-09-12 15:05:00,83.4,67.6,29.95,West,259,0.0,1.0,59,0.00,,,0.00,Wunderground v.1.15,2013-09-12 19:05:00,
2013-09-12 15:11:00,83.4,67.6,29.95,West,260,0.0,0.0,59,0.00,,,0.00,Wunderground v.1.15,2013-09-12 19:11:00,
2013-09-12 15:16:00,84.0,68.1,29.95,West,260,0.0,2.0,59,0.00,,,0.00,Wunderground v.1.15,2013-09-12 19:16:00,
2013-09-12 15:21:00,83.6,67.3,29.94,West,262,2.0,5.0,58,0.00,,,0.00,Wunderground v.1.15,2013-09-12 19:21:00,
2013-09-12 15:27:00,83.0,67.2,29.94,West,270,2.0,5.0,59,0.00,,,0.00,Wunderground v.1.15,2013-09-12 19:27:00,
2013-09-12 15:32:00,83.0,66.7,29.94,West,268,1.0,2.0,58,0.00,,,0.00,Wunderground v.1.15,2013-09-12 19:32:00,
2013-09-12 15:38:00,82.8,66.5,29.93,West,262,1.0,2.0,58,0.00,,,0.00,Wunderground v.1.15,2013-09-12 19:38:00,
2013-09-12 15:43:00,82.8,67.0,29.93,West,262,1.0,1.0,59,0.00,,,0.00,Wunderground v.1.15,2013-09-12 19:43:00,
2013-09-12 15:49:00,83.2,67.4,29.93,West,262,0.0,2.0,59,0.00,,,0.00,Wunderground v.1.15,2013-09-12 19:49:00,
2013-09-12 15:54:00,83.0,67.7,29.92,West,262,0.0,4.0,60,0.00,,,0.00,Wunderground v.1.15,2013-09-12 19:54:00,
2013-09-12 16:00:00,83.0,67.2,29.92,West,263,1.0,1.0,59,0.00,,,0.00,Wunderground v.1.15,2013-09-12 20:00:00,
2013-09-12 16:05:00,82.6,67.3,29.91,West,263,1.0,2.0,60,0.00,,,0.00,Wunderground v.1.15,2013-09-12 20:05:00,
2013-09-12 16:11:00,82.6,67.3,29.91,West,262,1.0,5.0,60,0.00,,,0.00,Wunderground v.1.15,2013-09-12 20:11:00,
2013-09-12 16:16:00,82.4,67.6,29.91,West,262,1.0,5.0,61,0.00,,,0.00,Wunderground v.1.15,2013-09-12 20:16:00,
2013-09-12 16:22:00,82.0,67.2,29.92,WSW,257,1.0,2.0,61,0.00,,,0.00,Wunderground v.1.15,2013-09-12 20:22:00,
2013-09-12 16:27:00,81.8,68.0,29.92,WSW,257,1.0,2.0,63,0.00,,,0.00,Wunderground v.1.15,2013-09-12 20:27:00,
2013-09-12 16:32:00,81.4,67.6,29.92,WSW,257,0.0,1.0,63,0.00,,,0.00,Wunderground v.1.15,2013-09-12 20:32:00,
2013-09-12 16:38:00,81.2,67.9,29.91,WSW,257,0.0,1.0,64,0.00,,,0.00,Wunderground v.1.15,2013-09-12 20:38:00,
2013-09-12 16:43:00,81.2,67.4,29.91,WSW,257,0.0,0.0,63,0.00,,,0.00,Wunderground v.1.15,2013-09-12 20:43:00,
2013-09-12 16:49:00,81.4,68.1,29.91,WSW,257,0.0,1.0,64,0.00,,,0.00,Wunderground v.1.15,2013-09-12 20:49:00,
2013-09-12 16:55:00,82.0,67.2,29.91,WSW,255,1.0,4.0,61,0.00,,,0.00,Wunderground v.1.15,2013-09-12 20:55:00,
2013-09-12 17:01:00,82.2,67.9,29.91,WSW,255,1.0,1.0,62,0.00,,,0.00,Wunderground v.1.15,2013-09-12 21:01:00,
2013-09-12 18:56:00,78.6,67.6,29.90,WSW,247,0.0,0.0,69,0.00,,,0.00,Wunderground v.1.15,2013-09-12 22:56:00,
2013-09-12 19:02:00,78.5,67.5,29.90,WSW,247,0.0,0.0,69,0.00,,,0.00,Wunderground v.1.15,2013-09-12 23:02:00,
2013-09-12 19:07:00,78.3,67.3,29.91,WSW,247,0.0,0.0,69,0.00,,,0.00,Wunderground v.1.15,2013-09-12 23:07:00,
2013-09-12 19:13:00,77.9,67.3,29.91,WSW,247,0.0,0.0,70,0.00,,,0.00,Wunderground v.1.15,2013-09-12 23:13:00,
2013-09-12 19:18:00,77.7,67.1,29.91,WSW,247,0.0,0.0,70,0.00,,,0.00,Wunderground v.1.15,2013-09-12 23:18:00,
2013-09-12 19:24:00,77.6,67.4,29.90,WSW,248,0.0,3.0,71,0.00,,,0.00,Wunderground v.1.15,2013-09-12 23:24:00,
2013-09-12 19:29:00,77.4,67.3,29.90,WSW,247,1.0,4.0,71,0.00,,,0.00,Wunderground v.1.15,2013-09-12 23:29:00,
2013-09-12 19:35:00,77.2,67.5,29.89,WSW,247,1.0,4.0,72,0.00,,,0.00,Wunderground v.1.15,2013-09-12 23:35:00,
2013-09-12 19:40:00,77.0,67.3,29.89,WSW,247,0.0,0.0,72,0.00,,,0.00,Wunderground v.1.15,2013-09-12 23:40:00,
2013-09-12 19:45:00,76.8,67.5,29.89,WSW,247,1.0,3.0,73,0.00,,,0.00,Wunderground v.1.15,2013-09-12 23:45:00,
2013-09-12 19:51:00,76.8,67.5,29.89,WSW,247,1.0,2.0,73,0.00,,,0.00,Wunderground v.1.15,2013-09-12 23:51:00,
2013-09-12 19:57:00,76.7,67.4,29.89,WSW,247,1.0,3.0,73,0.00,,,0.00,Wunderground v.1.15,2013-09-12 23:57:00,
2013-09-12 20:02:00,76.7,67.8,29.89,WSW,247,0.0,0.0,74,0.00,,,0.00,Wunderground v.1.15,2013-09-13 00:02:00,
2013-09-12 20:07:00,76.5,67.6,29.89,WSW,247,0.0,2.0,74,0.00,,,0.00,Wunderground v.1.15,2013-09-13 00:07:00,
2013-09-12 20:13:00,76.5,67.6,29.89,WSW,247,0.0,0.0,74,0.00,,,0.00,Wunderground v.1.15,2013-09-13 00:13:00,
2013-09-12 20:18:00,76.3,67.8,29.89,WSW,247,0.0,0.0,75,0.00,,,0.00,Wunderground v.1.15,2013-09-13 00:18:00,
2013-09-12 20:24:00,76.3,67.8,29.91,WSW,247,0.0,0.0,75,0.00,,,0.00,Wunderground v.1.15,2013-09-13 00:24:00,
2013-09-12 20:29:00,76.1,67.6,29.91,WSW,247,0.0,0.0,75,0.00,,,0.00,Wunderground v.1.15,2013-09-13 00:29:00,
2013-09-12 20:35:00,76.1,68.0,29.90,WSW,247,0.0,0.0,76,0.00,,,0.00,Wunderground v.1.15,2013-09-13 00:35:00,
2013-09-12 20:40:00,75.8,67.7,29.90,WSW,247,0.0,0.0,76,0.00,,,0.00,Wunderground v.1.15,2013-09-13 00:40:00,
2013-09-12 20:46:00,75.6,66.3,29.90,WSW,247,0.0,0.0,73,0.00,,,0.00,Wunderground v.1.15,2013-09-13 00:46:00,
2013-09-12 20:51:00,75.4,66.1,29.91,WSW,247,0.0,0.0,73,0.00,,,0.00,Wunderground v.1.15,2013-09-13 00:51:00,
2013-09-12 20:57:00,75.3,66.0,29.91,WSW,247,0.0,0.0,73,0.00,,,0.00,Wunderground v.1.15,2013-09-13 00:57:00,
2013-09-12 21:02:00,74.9,65.7,29.91,WSW,247,0.0,3.0,73,0.00,,,0.00,Wunderground v.1.15,2013-09-13 01:02:00,
2013-09-12 21:08:00,74.7,65.5,29.91,WSW,247,1.0,3.0,73,0.00,,,0.00,Wunderground v.1.15,2013-09-13 01:08:00,
2013-09-12 21:13:00,74.4,65.2,29.91,WSW,247,0.0,0.0,73,0.00,,,0.00,Wunderground v.1.15,2013-09-13 01:13:00,
2013-09-12 21:19:00,74.2,65.4,29.91,WSW,247,0.0,0.0,74,0.00,,,0.00,Wunderground v.1.15,2013-09-13 01:19:00,
2013-09-12 21:24:00,74.0,65.2,29.92,WSW,247,0.0,0.0,74,0.00,,,0.00,Wunderground v.1.15,2013-09-13 01:24:00,
2013-09-12 21:29:00,73.9,65.9,29.92,WSW,247,0.0,0.0,76,0.00,,,0.00,Wunderground v.1.15,2013-09-13 01:29:00,
2013-09-12 21:35:00,73.7,65.7,29.92,WSW,247,0.0,0.0,76,0.00,,,0.00,Wunderground v.1.15,2013-09-13 01:35:00,
2013-09-12 21:40:00,73.5,65.8,29.92,WSW,247,0.0,0.0,77,0.00,,,0.00,Wunderground v.1.15,2013-09-13 01:40:00,
2013-09-12 21:46:00,73.2,65.9,29.92,WSW,247,0.0,0.0,78,0.00,,,0.00,Wunderground v.1.15,2013-09-13 01:46:00,
2013-09-12 21:51:00,73.0,66.1,29.91,WSW,247,0.0,0.0,79,0.00,,,0.00,Wunderground v.1.15,2013-09-13 01:51:00,
2013-09-12 21:57:00,72.7,65.8,29.91,WSW,247,0.0,4.0,79,0.00,,,0.00,Wunderground v.1.15,2013-09-13 01:57:00,
2013-09-12 22:02:00,72.5,66.0,29.91,WSW,247,0.0,0.0,80,0.00,,,0.00,Wunderground v.1.15,2013-09-13 02:02:00,
2013-09-12 22:08:00,72.5,66.0,29.91,WSW,247,0.0,1.0,80,0.00,,,0.00,Wunderground v.1.15,2013-09-13 02:08:00,
2013-09-12 22:13:00,72.3,66.1,29.91,WSW,247,0.0,1.0,81,0.00,,,0.00,Wunderground v.1.15,2013-09-13 02:13:00,
2013-09-12 22:18:00,72.1,66.3,29.91,WSW,247,0.0,1.0,82,0.00,,,0.00,Wunderground v.1.15,2013-09-13 02:18:00,
2013-09-12 22:24:00,72.1,66.3,29.92,WSW,247,0.0,1.0,82,0.00,,,0.00,Wunderground v.1.15,2013-09-13 02:24:00,
2013-09-12 22:30:00,72.1,66.6,29.92,WSW,247,0.0,0.0,83,0.00,,,0.00,Wunderground v.1.15,2013-09-13 02:30:00,
2013-09-12 22:35:00,72.1,66.6,29.93,WSW,247,0.0,0.0,83,0.00,,,0.00,Wunderground v.1.15,2013-09-13 02:35:00,
2013-09-12 22:40:00,72.1,66.6,29.93,WSW,247,0.0,0.0,83,0.00,,,0.00,Wunderground v.1.15,2013-09-13 02:40:00,
2013-09-12 22:46:00,72.1,67.0,29.93,WSW,247,0.0,0.0,84,0.00,,,0.00,Wunderground v.1.15,2013-09-13 02:46:00,
2013-09-12 22:51:00,72.0,66.9,29.92,WSW,247,0.0,1.0,84,0.00,,,0.00,Wunderground v.1.15,2013-09-13 02:51:00,
2013-09-12 22:57:00,72.0,66.9,29.92,WSW,247,0.0,1.0,84,0.00,,,0.00,Wunderground v.1.15,2013-09-13 02:57:00,
2013-09-12 23:02:00,72.0,66.9,29.92,WSW,247,0.0,3.0,84,0.00,,,0.00,Wunderground v.1.15,2013-09-13 03:02:00,
2013-09-12 23:08:00,72.0,66.2,29.92,WSW,247,1.0,3.0,82,0.00,,,0.00,Wunderground v.1.15,2013-09-13 03:08:00,
2013-09-12 23:13:00,72.0,66.2,29.92,WSW,247,1.0,3.0,82,0.00,,,0.00,Wunderground v.1.15,2013-09-13 03:13:00,
2013-09-12 23:19:00,72.0,65.8,29.92,WSW,247,1.0,4.0,81,0.00,,,0.00,Wunderground v.1.15,2013-09-13 03:19:00,
2013-09-12 23:24:00,72.0,65.5,29.92,WSW,247,1.0,2.0,80,0.00,,,0.00,Wunderground v.1.15,2013-09-13 03:24:00,
2013-09-12 23:29:00,72.0,65.5,29.92,WSW,247,1.0,2.0,80,0.00,,,0.00,Wunderground v.1.15,2013-09-13 03:29:00,
2013-09-12 23:34:00,71.8,64.9,29.91,WSW,247,0.0,2.0,79,0.00,,,0.00,Wunderground v.1.15,2013-09-13 03:34:00,
2013-09-12 23:40:00,71.8,64.9,29.91,WSW,247,0.0,0.0,79,0.00,,,0.00,Wunderground v.1.15,2013-09-13 03:40:00,
2013-09-12 23:46:00,71.6,64.7,29.91,WSW,247,0.0,0.0,79,0.00,,,0.00,Wunderground v.1.15,2013-09-13 03:46:00,
2013-09-12 23:51:00,72.0,64.4,29.91,WSW,248,0.0,0.0,77,0.00,,,0.00,Wunderground v.1.15,2013-09-13 03:51:00,
2013-09-12 23:56:00,72.3,64.3,29.91,WSW,248,0.0,4.0,76,0.00,,,0.00,Wunderground v.1.15,2013-09-13 03:56:00,